This is the latest recevied weather packets stored in our database for station/object WH6VH. If no packets are shown the sender has not sent any weather packets the latest 10 day(s).
| Time | Temp. | Humidity | Pressure | Rain* | Wind** | Luminosity | Snow |
|---|---|---|---|---|---|---|---|
| 1777453204 | 5° C | 77% | 1021.5 hPa | 0 mm | - | - | - |
| 1777451705 | 5° C | 77% | 1021.6 hPa | 0 mm | - | - | - |
| 1777451104 | 5° C | 77% | 1021.9 hPa | 0 mm | - | - | - |
| 1777450804 | 5° C | 77% | 1022 hPa | 0 mm | - | - | - |
| 1777450204 | 5° C | 76% | 1022.2 hPa | 0 mm | - | - | - |
| 1777449904 | 5° C | 76% | 1022.3 hPa | 0 mm | - | - | - |
| 1777448703 | 5° C | 74% | 1022.4 hPa | 0 mm | - | - | - |
| 1777447804 | 5.56° C | 73% | 1022.6 hPa | 0 mm | - | - | - |
| 1777444204 | 6.67° C | 70% | 1023 hPa | 0 mm | - | - | - |
| 1777443305 | 6.67° C | 70% | 1023 hPa | 0 mm | - | - | - |
| 1777442705 | 6.67° C | 70% | 1023.1 hPa | 0 mm | - | - | - |
| 1777442104 | 6.67° C | 70% | 1023 hPa | 0 mm | - | - | - |
| 1777440005 | 6.67° C | 70% | 1023 hPa | 0 mm | - | - | - |
| 1777438204 | 6.11° C | 72% | 1022.1 hPa | 0 mm | - | - | - |
| 1777436104 | 6.67° C | 73% | 1022.2 hPa | 0 mm | - | - | - |
| 1777434005 | 7.78° C | 63% | 1022.1 hPa | 0 mm | - | - | - |
| 1777431004 | 10° C | 44% | 1020.8 hPa | 0 mm | - | - | - |
| 1777430704 | 10° C | 42% | 1020.6 hPa | 0 mm | - | - | - |
| 1777430105 | 10° C | 41% | 1020.4 hPa | 0 mm | - | - | - |
| 1777429804 | 10° C | 43% | 1020.4 hPa | 0 mm | - | - | - |
| 1777429504 | 10° C | 44% | 1020.4 hPa | 0 mm | - | - | - |
| 1777428604 | 10.56° C | 46% | 1019.8 hPa | 0 mm | - | - | - |
| 1777428304 | 10.56° C | 46% | 1019.8 hPa | 0 mm | - | - | - |
| 1777426804 | 11.67° C | 43% | 1019.4 hPa | 0 mm | - | - | - |
| 1777426205 | 11.67° C | 43% | 1019.3 hPa | 0 mm | - | - | - |
* Rain latest hour (hover to see other rain measurements)
** Current wind speed in m/s (hover to see current wind gust speed)